Federal-Mogul Holdings Corp (FDML) Latest Bloomsberg Price


Mffais Ranking #1198 Overall / #12 Industry
Industry: Auto Parts

Number of Companies: 56 (Ranking #2215 Overall/#27 Industry)
Inflow: $ 2,323 (K) (Ranking #2392 Overall/#28 Industry)
Outflow: $ -2,428 (K)
Mffais Flow: $ -104 (K) (Ranking #1198 Overall/#12 Industry)


Receive a FREE weekly executive review of stocks moving into the top 10, taking the top industy spot or moving up within their industry. Sent directly to your Inbox every Saturday. Sign up today and get last week's review immediately sent to you.

We value and respect your privacy. Please read our Terms and Conditions which states our firm commitment to your privacy. Your email address will not be shared with a third party, nor will it be sold or used for purposes other than subscription for the weekly review.

Owner CPOR Shares Action Qty Chg Invested (K) Total Current Value (K)
Ancora Advisors Llc 2016-09-30 97,336 New Holding 97,336 $ 866 $ 866
Staley Capital Advisers Inc 2016-09-30 2,749,000 Added More 40,000 $ 356 $ 24,466
Bailard Inc 2016-09-30 35,700 New Holding 35,700 $ 317 $ 317
Gabelli Funds Llc 2016-09-30 2,011,868 Added More 33,668 $ 299 $ 17,905
Northern Trust Corp 2016-09-30 389,053 Added More 17,998 $ 160 $ 3,462
Gsa Capital Partners Llp 2016-09-30 12,456 New Holding 12,456 $ 110 $ 110
Kassirer Asset Management Corp 2016-09-30 11,300 New Holding 11,300 $ 100 $ 100
Kcg Holdings Inc 2016-09-30 16,684 Added More 4,112 $ 36 $ 148
Gabelli Securities Inc 2016-09-30 53,004 Added More 3,500 $ 31 $ 471
Teachers Advisors Inc 2016-09-30 48,832 Added More 3,445 $ 30 $ 434
California State Teachers Retirement System 2016-09-30 64,944 Added More 600 $ 5 $ 578
Acrospire Investment Management Llc 2016-09-30 4,535 Added More 382 $ 3 $ 40
Blackrock Inc 2016-09-30 9,326 Added More 370 $ 3 $ 83
Rhumbline Advisers 2016-09-30 42,312 Added More 200 $ 1 $ 376
American International Group Inc 2016-09-30 17,697 Added More 27 $ 0 $ 157
Zurcher Kantonalbank Zurich Cantonalbank 2016-09-30 962 Added More 6 $ 0 $ 8
Icahn Carl C 2016-09-30 138,590,141 No Change 0 $ 0 $ 1,233,452
Us Bancorp De 2016-09-30 2,008 No Change 0 $ 0 $ 17
United Fire Group Inc 2016-09-30 38,457 No Change 0 $ 0 $ 342
Teachers Insurance Annuity Association Of America 2016-09-30 2,118,016 No Change 0 $ 0 $ 18,850
Sei Investments Co 2016-09-30 451 No Change 0 $ 0 $ 4
Legal General Group Plc 2016-09-30 7,080 No Change 0 $ 0 $ 63
New York State Common Retirement Fund 2016-09-30 27,700 No Change 0 $ 0 $ 246
Panagora Asset Management Inc 2016-09-30 2,695 No Change 0 $ 0 $ 23
Jacobs Levy Equity Management Inc 2016-09-30 46,250 No Change 0 $ 0 $ 411
Nisa Investment Advisors Llc 2016-09-30 5,200 No Change 0 $ 0 $ 46
Nationwide Fund Advisors 2016-09-30 41,344 No Change 0 $ 0 $ 367
Css Llc Il 2016-09-30 10,486 No Change 0 $ 0 $ 93
Springbok Capital Management Llc 2016-09-30 6,224 No Change 0 $ 0 $ 55
Msi Financial Services Inc 2016-09-30 200 No Change 0 $ 0 $ 1
Teton Advisors Inc 2016-09-30 400,000 No Change 0 $ 0 $ 3,560
Spark Investment Management Llc 2016-09-30 161,300 No Change 0 $ 0 $ 1,435
Advisory Services Network Llc 2016-09-30 5 No Change 0 $ 0 $ 0
Sheaff Brock Investment Advisors Llc 2016-09-30 25,000 No Change 0 $ 0 $ 222
Parametric Portfolio Associates Llc 2016-09-30 106,613 Sold Some -148 $ -1 $ 948
Pnc Financial Services Group Inc 2016-09-30 0 Sold All -190 $ -1 $ 0
Tower Research Capital Llc Trc 2016-09-30 300 Sold Some -253 $ -2 $ 2
Cornercap Investment Counsel Inc 2016-09-30 65,245 Sold Some -305 $ -2 $ 580
Aperio Group Llc 2016-09-30 18,837 Sold Some -904 $ -8 $ 167
First Manhattan Co 2016-09-30 266,529 Sold Some -910 $ -8 $ 2,372
Walleye Trading Llc 2016-09-30 18,572 Sold Some -931 $ -8 $ 165
Simplex Trading Llc 2016-09-30 0 Sold All -2,038 $ -18 $ 0
Blackrock Investment Management Llc 2016-09-30 125,450 Sold Some -2,291 $ -20 $ 1,116
Swiss National Bank 2016-09-30 59,800 Sold Some -2,800 $ -24 $ 532
Dimensional Fund Advisors Lp 2016-09-30 2,660,398 Sold Some -2,832 $ -25 $ 23,677
Teacher Retirement System Of Texas 2016-09-30 0 Sold All -4,751 $ -42 $ 0
Strs Ohio 2016-09-30 68,300 Sold Some -6,600 $ -58 $ 607
Compagnie Lombard Odier Scma 2016-09-30 1,500 Sold Some -7,300 $ -64 $ 13
Horizon Kinetics Llc 2016-09-30 57,054 Sold Some -8,391 $ -74 $ 507
Zacks Investment Management 2016-09-30 0 Sold All -14,756 $ -131 $ 0
Menta Capital Llc 2016-09-30 19,127 Sold Some -14,786 $ -131 $ 170
Cutler Group Lp 2016-09-30 3,508 Sold Some -19,092 $ -169 $ 31
Dynamic Technology Lab Private Ltd 2016-09-30 0 Sold All -27,187 $ -241 $ 0
Omers Administration Corp 2016-09-30 94,500 Sold Some -36,500 $ -324 $ 841
Tfs Capital Llc 2016-09-30 53,156 Sold Some -56,257 $ -500 $ 473
Gamco Investors Inc Et Al 2016-09-30 8,286,138 Sold Some -63,639 $ -566 $ 73,746